sensor_id;sensor_type;location;lat;lon;timestamp;P1;durP1;ratioP1;P2;durP2;ratioP2
7154;SDS011;3619;53.784;10.440;2023-03-12T00:01:50;5.60;;;5.40;;
7154;SDS011;3619;53.784;10.440;2023-03-12T00:04:18;4.30;;;4.20;;
7154;SDS011;3619;53.784;10.440;2023-03-12T00:06:45;4.30;;;4.20;;
7154;SDS011;3619;53.784;10.440;2023-03-12T00:09:12;4.90;;;4.70;;
7154;SDS011;3619;53.784;10.440;2023-03-12T00:11:42;5.10;;;4.90;;
7154;SDS011;3619;53.784;10.440;2023-03-12T00:14:09;5.10;;;4.90;;
7154;SDS011;3619;53.784;10.440;2023-03-12T00:16:36;4.93;;;4.73;;
7154;SDS011;3619;53.784;10.440;2023-03-12T00:19:04;4.60;;;4.40;;
7154;SDS011;3619;53.784;10.440;2023-03-12T00:21:31;4.10;;;4.00;;
7154;SDS011;3619;53.784;10.440;2023-03-12T00:23:58;4.77;;;4.57;;
7154;SDS011;3619;53.784;10.440;2023-03-12T00:26:26;4.40;;;4.30;;
7154;SDS011;3619;53.784;10.440;2023-03-12T00:28:52;5.33;;;5.13;;
7154;SDS011;3619;53.784;10.440;2023-03-12T00:31:20;5.50;;;5.30;;
7154;SDS011;3619;53.784;10.440;2023-03-12T00:33:47;5.47;;;5.27;;
7154;SDS011;3619;53.784;10.440;2023-03-12T00:36:16;4.77;;;4.57;;
7154;SDS011;3619;53.784;10.440;2023-03-12T00:38:44;4.93;;;4.73;;
7154;SDS011;3619;53.784;10.440;2023-03-12T00:41:10;4.87;;;4.67;;
7154;SDS011;3619;53.784;10.440;2023-03-12T00:43:37;5.73;;;5.53;;
7154;SDS011;3619;53.784;10.440;2023-03-12T00:46:06;5.33;;;5.13;;
7154;SDS011;3619;53.784;10.440;2023-03-12T00:48:33;4.97;;;4.77;;
7154;SDS011;3619;53.784;10.440;2023-03-12T00:50:59;5.40;;;5.20;;
7154;SDS011;3619;53.784;10.440;2023-03-12T00:53:28;5.60;;;5.40;;
7154;SDS011;3619;53.784;10.440;2023-03-12T00:55:54;5.97;;;5.77;;
7154;SDS011;3619;53.784;10.440;2023-03-12T00:58:21;4.73;;;4.53;;
7154;SDS011;3619;53.784;10.440;2023-03-12T01:00:48;5.27;;;5.07;;
7154;SDS011;3619;53.784;10.440;2023-03-12T01:03:15;4.40;;;4.27;;
7154;SDS011;3619;53.784;10.440;2023-03-12T01:05:41;5.37;;;5.17;;
7154;SDS011;3619;53.784;10.440;2023-03-12T01:08:09;6.30;;;6.10;;
7154;SDS011;3619;53.784;10.440;2023-03-12T01:10:39;5.83;;;5.63;;
7154;SDS011;3619;53.784;10.440;2023-03-12T01:13:11;6.37;;;6.17;;
7154;SDS011;3619;53.784;10.440;2023-03-12T01:15:38;5.87;;;5.67;;
7154;SDS011;3619;53.784;10.440;2023-03-12T01:18:05;6.10;;;5.90;;
7154;SDS011;3619;53.784;10.440;2023-03-12T01:20:32;5.83;;;5.63;;
7154;SDS011;3619;53.784;10.440;2023-03-12T01:23:04;5.57;;;5.37;;
7154;SDS011;3619;53.784;10.440;2023-03-12T01:25:31;6.27;;;6.07;;
7154;SDS011;3619;53.784;10.440;2023-03-12T01:28:00;6.20;;;6.00;;
7154;SDS011;3619;53.784;10.440;2023-03-12T01:30:27;5.37;;;5.17;;
7154;SDS011;3619;53.784;10.440;2023-03-12T01:32:56;5.37;;;5.17;;
7154;SDS011;3619;53.784;10.440;2023-03-12T01:35:23;5.93;;;5.73;;
7154;SDS011;3619;53.784;10.440;2023-03-12T01:37:51;6.67;;;6.47;;
7154;SDS011;3619;53.784;10.440;2023-03-12T01:40:20;5.67;;;5.47;;
7154;SDS011;3619;53.784;10.440;2023-03-12T01:42:53;6.03;;;5.83;;
7154;SDS011;3619;53.784;10.440;2023-03-12T01:48:28;5.57;;;5.37;;
7154;SDS011;3619;53.784;10.440;2023-03-12T01:50:59;5.43;;;5.23;;
7154;SDS011;3619;53.784;10.440;2023-03-12T01:53:28;5.87;;;5.67;;
7154;SDS011;3619;53.784;10.440;2023-03-12T01:55:56;6.20;;;6.00;;
7154;SDS011;3619;53.784;10.440;2023-03-12T01:58:23;5.60;;;5.40;;
7154;SDS011;3619;53.784;10.440;2023-03-12T02:00:52;5.67;;;5.47;;
7154;SDS011;3619;53.784;10.440;2023-03-12T02:03:21;6.60;;;6.40;;
7154;SDS011;3619;53.784;10.440;2023-03-12T02:05:50;7.13;;;6.83;;
7154;SDS011;3619;53.784;10.440;2023-03-12T02:08:20;6.63;;;6.43;;
7154;SDS011;3619;53.784;10.440;2023-03-12T02:10:48;6.23;;;6.03;;
7154;SDS011;3619;53.784;10.440;2023-03-12T02:13:15;6.60;;;6.40;;
7154;SDS011;3619;53.784;10.440;2023-03-12T02:15:42;6.13;;;5.93;;
7154;SDS011;3619;53.784;10.440;2023-03-12T02:18:10;7.53;;;7.23;;
7154;SDS011;3619;53.784;10.440;2023-03-12T02:20:44;6.13;;;5.93;;
7154;SDS011;3619;53.784;10.440;2023-03-12T02:23:16;7.27;;;6.97;;
7154;SDS011;3619;53.784;10.440;2023-03-12T02:25:53;7.33;;;7.03;;
7154;SDS011;3619;53.784;10.440;2023-03-12T02:28:25;6.70;;;6.50;;
7154;SDS011;3619;53.784;10.440;2023-03-12T02:31:01;6.90;;;6.70;;
7154;SDS011;3619;53.784;10.440;2023-03-12T02:33:31;6.37;;;6.17;;
7154;SDS011;3619;53.784;10.440;2023-03-12T02:35:58;7.03;;;6.77;;
7154;SDS011;3619;53.784;10.440;2023-03-12T02:38:31;6.50;;;6.30;;
7154;SDS011;3619;53.784;10.440;2023-03-12T02:41:05;5.73;;;5.53;;
7154;SDS011;3619;53.784;10.440;2023-03-12T02:43:39;6.77;;;6.57;;
7154;SDS011;3619;53.784;10.440;2023-03-12T02:46:07;7.93;;;7.63;;
7154;SDS011;3619;53.784;10.440;2023-03-12T02:48:34;6.37;;;6.17;;
7154;SDS011;3619;53.784;10.440;2023-03-12T02:51:01;7.27;;;6.97;;
7154;SDS011;3619;53.784;10.440;2023-03-12T02:53:28;6.97;;;6.73;;
7154;SDS011;3619;53.784;10.440;2023-03-12T02:55:57;7.83;;;7.53;;
7154;SDS011;3619;53.784;10.440;2023-03-12T02:58:25;7.50;;;7.20;;
7154;SDS011;3619;53.784;10.440;2023-03-12T03:00:57;7.57;;;7.27;;
7154;SDS011;3619;53.784;10.440;2023-03-12T03:03:25;8.00;;;7.70;;
7154;SDS011;3619;53.784;10.440;2023-03-12T03:05:52;8.40;;;8.10;;
7154;SDS011;3619;53.784;10.440;2023-03-12T03:08:19;7.23;;;6.93;;
7154;SDS011;3619;53.784;10.440;2023-03-12T03:10:49;8.13;;;7.83;;
7154;SDS011;3619;53.784;10.440;2023-03-12T03:13:15;7.53;;;7.23;;
7154;SDS011;3619;53.784;10.440;2023-03-12T03:15:44;7.83;;;7.53;;
7154;SDS011;3619;53.784;10.440;2023-03-12T03:18:11;6.30;;;6.10;;
7154;SDS011;3619;53.784;10.440;2023-03-12T03:20:38;7.03;;;6.77;;
7154;SDS011;3619;53.784;10.440;2023-03-12T03:23:04;7.73;;;7.43;;
7154;SDS011;3619;53.784;10.440;2023-03-12T03:25:31;8.00;;;7.70;;
7154;SDS011;3619;53.784;10.440;2023-03-12T03:27:59;8.00;;;7.70;;
7154;SDS011;3619;53.784;10.440;2023-03-12T03:30:26;6.87;;;6.67;;
7154;SDS011;3619;53.784;10.440;2023-03-12T03:32:55;7.27;;;6.97;;
7154;SDS011;3619;53.784;10.440;2023-03-12T03:35:23;8.23;;;7.93;;
7154;SDS011;3619;53.784;10.440;2023-03-12T03:37:49;9.13;;;8.83;;
7154;SDS011;3619;53.784;10.440;2023-03-12T03:40:16;8.53;;;8.23;;
7154;SDS011;3619;53.784;10.440;2023-03-12T03:42:45;8.80;;;8.50;;
7154;SDS011;3619;53.784;10.440;2023-03-12T03:45:13;8.73;;;8.43;;
7154;SDS011;3619;53.784;10.440;2023-03-12T03:47:41;8.37;;;8.07;;
7154;SDS011;3619;53.784;10.440;2023-03-12T03:50:10;8.13;;;7.83;;
7154;SDS011;3619;53.784;10.440;2023-03-12T03:52:37;8.27;;;7.97;;
7154;SDS011;3619;53.784;10.440;2023-03-12T03:55:05;8.77;;;8.47;;
7154;SDS011;3619;53.784;10.440;2023-03-12T03:57:32;8.43;;;8.13;;
7154;SDS011;3619;53.784;10.440;2023-03-12T03:59:59;8.67;;;8.37;;
7154;SDS011;3619;53.784;10.440;2023-03-12T04:02:26;8.63;;;8.33;;
7154;SDS011;3619;53.784;10.440;2023-03-12T04:04:55;8.27;;;7.97;;
7154;SDS011;3619;53.784;10.440;2023-03-12T04:07:24;8.80;;;8.50;;
7154;SDS011;3619;53.784;10.440;2023-03-12T04:09:51;8.90;;;8.60;;
7154;SDS011;3619;53.784;10.440;2023-03-12T04:12:18;8.33;;;8.03;;
7154;SDS011;3619;53.784;10.440;2023-03-12T04:14:45;9.97;;;9.57;;
7154;SDS011;3619;53.784;10.440;2023-03-12T04:17:11;8.30;;;8.00;;
7154;SDS011;3619;53.784;10.440;2023-03-12T04:19:40;9.60;;;9.23;;
7154;SDS011;3619;53.784;10.440;2023-03-12T04:22:08;10.83;;;10.43;;
7154;SDS011;3619;53.784;10.440;2023-03-12T04:24:36;10.10;;;9.70;;
7154;SDS011;3619;53.784;10.440;2023-03-12T04:27:03;9.10;;;8.80;;
7154;SDS011;3619;53.784;10.440;2023-03-12T04:29:30;9.43;;;9.13;;
7154;SDS011;3619;53.784;10.440;2023-03-12T04:31:56;8.80;;;8.50;;
7154;SDS011;3619;53.784;10.440;2023-03-12T04:34:23;9.27;;;8.97;;
7154;SDS011;3619;53.784;10.440;2023-03-12T04:36:51;9.10;;;8.80;;
7154;SDS011;3619;53.784;10.440;2023-03-12T04:39:18;7.97;;;7.67;;
7154;SDS011;3619;53.784;10.440;2023-03-12T04:41:53;9.00;;;8.70;;
7154;SDS011;3619;53.784;10.440;2023-03-12T04:44:26;8.20;;;7.90;;
7154;SDS011;3619;53.784;10.440;2023-03-12T04:46:55;8.60;;;8.30;;
7154;SDS011;3619;53.784;10.440;2023-03-12T04:49:22;8.20;;;7.90;;
7154;SDS011;3619;53.784;10.440;2023-03-12T04:51:49;8.53;;;8.23;;
7154;SDS011;3619;53.784;10.440;2023-03-12T04:54:16;9.70;;;9.30;;
7154;SDS011;3619;53.784;10.440;2023-03-12T04:56:45;9.47;;;9.13;;
7154;SDS011;3619;53.784;10.440;2023-03-12T04:59:13;10.43;;;10.03;;
7154;SDS011;3619;53.784;10.440;2023-03-12T05:04:13;7.80;;;7.50;;
7154;SDS011;3619;53.784;10.440;2023-03-12T05:06:40;8.60;;;8.30;;
7154;SDS011;3619;53.784;10.440;2023-03-12T05:09:07;7.47;;;7.17;;
7154;SDS011;3619;53.784;10.440;2023-03-12T05:11:34;8.30;;;8.00;;
7154;SDS011;3619;53.784;10.440;2023-03-12T05:14:00;6.60;;;6.40;;
7154;SDS011;3619;53.784;10.440;2023-03-12T05:16:31;7.53;;;7.23;;
7154;SDS011;3619;53.784;10.440;2023-03-12T05:18:58;6.40;;;6.20;;
7154;SDS011;3619;53.784;10.440;2023-03-12T05:21:26;7.90;;;7.60;;
7154;SDS011;3619;53.784;10.440;2023-03-12T05:23:53;7.73;;;7.43;;
7154;SDS011;3619;53.784;10.440;2023-03-12T05:26:20;6.77;;;6.57;;
7154;SDS011;3619;53.784;10.440;2023-03-12T05:28:49;8.30;;;8.00;;
7154;SDS011;3619;53.784;10.440;2023-03-12T05:31:18;7.43;;;7.13;;
7154;SDS011;3619;53.784;10.440;2023-03-12T05:33:47;8.13;;;7.83;;
7154;SDS011;3619;53.784;10.440;2023-03-12T05:36:14;7.23;;;6.93;;
7154;SDS011;3619;53.784;10.440;2023-03-12T05:38:41;8.67;;;8.37;;
7154;SDS011;3619;53.784;10.440;2023-03-12T05:41:08;8.90;;;8.60;;
7154;SDS011;3619;53.784;10.440;2023-03-12T05:43:42;7.97;;;7.67;;
7154;SDS011;3619;53.784;10.440;2023-03-12T05:46:08;9.27;;;8.97;;
7154;SDS011;3619;53.784;10.440;2023-03-12T05:48:36;8.27;;;7.97;;
7154;SDS011;3619;53.784;10.440;2023-03-12T05:51:05;7.90;;;7.60;;
7154;SDS011;3619;53.784;10.440;2023-03-12T05:53:31;9.27;;;8.97;;
7154;SDS011;3619;53.784;10.440;2023-03-12T05:56:00;8.87;;;8.57;;
7154;SDS011;3619;53.784;10.440;2023-03-12T05:58:28;8.33;;;8.03;;
7154;SDS011;3619;53.784;10.440;2023-03-12T06:00:56;8.87;;;8.57;;
7154;SDS011;3619;53.784;10.440;2023-03-12T06:03:23;7.13;;;6.83;;
7154;SDS011;3619;53.784;10.440;2023-03-12T06:05:51;6.60;;;6.40;;
7154;SDS011;3619;53.784;10.440;2023-03-12T06:08:21;7.40;;;7.10;;
7154;SDS011;3619;53.784;10.440;2023-03-12T06:10:50;6.70;;;6.50;;
7154;SDS011;3619;53.784;10.440;2023-03-12T06:13:19;6.03;;;5.83;;
7154;SDS011;3619;53.784;10.440;2023-03-12T06:15:46;6.13;;;5.93;;
7154;SDS011;3619;53.784;10.440;2023-03-12T06:18:13;6.27;;;6.07;;
7154;SDS011;3619;53.784;10.440;2023-03-12T06:20:41;5.70;;;5.50;;
7154;SDS011;3619;53.784;10.440;2023-03-12T06:23:08;6.33;;;6.13;;
7154;SDS011;3619;53.784;10.440;2023-03-12T06:25:36;6.67;;;6.47;;
7154;SDS011;3619;53.784;10.440;2023-03-12T06:28:03;7.33;;;7.03;;
7154;SDS011;3619;53.784;10.440;2023-03-12T06:30:32;6.63;;;6.43;;
7154;SDS011;3619;53.784;10.440;2023-03-12T06:32:58;7.33;;;7.03;;
7154;SDS011;3619;53.784;10.440;2023-03-12T06:35:28;6.40;;;6.20;;
7154;SDS011;3619;53.784;10.440;2023-03-12T06:37:54;6.20;;;6.00;;
7154;SDS011;3619;53.784;10.440;2023-03-12T06:40:22;7.17;;;6.87;;
7154;SDS011;3619;53.784;10.440;2023-03-12T06:42:51;6.97;;;6.73;;
7154;SDS011;3619;53.784;10.440;2023-03-12T06:45:18;6.23;;;6.03;;
7154;SDS011;3619;53.784;10.440;2023-03-12T06:47:44;6.30;;;6.10;;
7154;SDS011;3619;53.784;10.440;2023-03-12T06:50:11;6.93;;;6.70;;
7154;SDS011;3619;53.784;10.440;2023-03-12T06:52:38;7.27;;;6.97;;
7154;SDS011;3619;53.784;10.440;2023-03-12T06:55:06;6.77;;;6.57;;
7154;SDS011;3619;53.784;10.440;2023-03-12T06:57:32;5.63;;;5.43;;
7154;SDS011;3619;53.784;10.440;2023-03-12T07:00:03;6.53;;;6.33;;
7154;SDS011;3619;53.784;10.440;2023-03-12T07:02:32;6.40;;;6.20;;
7154;SDS011;3619;53.784;10.440;2023-03-12T07:04:59;6.10;;;5.90;;
7154;SDS011;3619;53.784;10.440;2023-03-12T07:07:27;6.60;;;6.40;;
7154;SDS011;3619;53.784;10.440;2023-03-12T07:09:55;6.10;;;5.90;;
7154;SDS011;3619;53.784;10.440;2023-03-12T07:12:22;5.97;;;5.77;;
7154;SDS011;3619;53.784;10.440;2023-03-12T07:14:50;6.03;;;5.83;;
7154;SDS011;3619;53.784;10.440;2023-03-12T07:17:18;6.57;;;6.37;;
7154;SDS011;3619;53.784;10.440;2023-03-12T07:19:45;5.57;;;5.37;;
7154;SDS011;3619;53.784;10.440;2023-03-12T07:22:11;4.20;;;4.10;;
7154;SDS011;3619;53.784;10.440;2023-03-12T07:24:38;4.87;;;4.67;;
7154;SDS011;3619;53.784;10.440;2023-03-12T07:27:05;5.80;;;5.60;;
7154;SDS011;3619;53.784;10.440;2023-03-12T07:29:32;5.67;;;5.47;;
7154;SDS011;3619;53.784;10.440;2023-03-12T07:31:58;4.80;;;4.60;;
7154;SDS011;3619;53.784;10.440;2023-03-12T07:34:27;4.83;;;4.63;;
7154;SDS011;3619;53.784;10.440;2023-03-12T07:36:54;5.67;;;5.47;;
7154;SDS011;3619;53.784;10.440;2023-03-12T07:39:21;5.00;;;4.80;;
7154;SDS011;3619;53.784;10.440;2023-03-12T07:41:48;5.43;;;5.23;;
7154;SDS011;3619;53.784;10.440;2023-03-12T07:44:15;5.70;;;5.50;;
7154;SDS011;3619;53.784;10.440;2023-03-12T07:46:42;5.23;;;5.03;;
7154;SDS011;3619;53.784;10.440;2023-03-12T07:49:09;5.70;;;5.50;;
7154;SDS011;3619;53.784;10.440;2023-03-12T07:51:37;6.30;;;6.10;;
7154;SDS011;3619;53.784;10.440;2023-03-12T07:54:04;6.23;;;6.03;;
7154;SDS011;3619;53.784;10.440;2023-03-12T07:56:31;6.20;;;6.00;;
7154;SDS011;3619;53.784;10.440;2023-03-12T07:58:57;5.57;;;5.37;;
7154;SDS011;3619;53.784;10.440;2023-03-12T08:01:24;7.40;;;7.10;;
7154;SDS011;3619;53.784;10.440;2023-03-12T08:03:56;7.20;;;6.90;;
7154;SDS011;3619;53.784;10.440;2023-03-12T08:06:26;7.50;;;7.20;;
7154;SDS011;3619;53.784;10.440;2023-03-12T08:08:55;6.93;;;6.70;;
7154;SDS011;3619;53.784;10.440;2023-03-12T08:11:23;6.73;;;6.53;;
7154;SDS011;3619;53.784;10.440;2023-03-12T08:13:51;6.40;;;6.20;;
7154;SDS011;3619;53.784;10.440;2023-03-12T08:16:17;6.37;;;6.17;;
7154;SDS011;3619;53.784;10.440;2023-03-12T08:18:44;6.23;;;6.03;;
7154;SDS011;3619;53.784;10.440;2023-03-12T08:21:11;6.87;;;6.63;;
7154;SDS011;3619;53.784;10.440;2023-03-12T08:23:40;7.53;;;7.23;;
7154;SDS011;3619;53.784;10.440;2023-03-12T08:26:08;6.17;;;5.97;;
7154;SDS011;3619;53.784;10.440;2023-03-12T08:28:37;5.20;;;5.00;;
7154;SDS011;3619;53.784;10.440;2023-03-12T08:31:04;7.47;;;7.17;;
7154;SDS011;3619;53.784;10.440;2023-03-12T08:33:31;5.40;;;5.20;;
7154;SDS011;3619;53.784;10.440;2023-03-12T08:36:05;5.63;;;5.43;;
7154;SDS011;3619;53.784;10.440;2023-03-12T08:38:33;5.27;;;5.07;;
7154;SDS011;3619;53.784;10.440;2023-03-12T08:41:00;5.40;;;5.20;;
7154;SDS011;3619;53.784;10.440;2023-03-12T08:43:28;6.10;;;5.90;;
7154;SDS011;3619;53.784;10.440;2023-03-12T08:45:55;7.87;;;7.57;;
7154;SDS011;3619;53.784;10.440;2023-03-12T08:48:24;8.40;;;8.10;;
7154;SDS011;3619;53.784;10.440;2023-03-12T08:50:53;7.93;;;7.63;;
7154;SDS011;3619;53.784;10.440;2023-03-12T08:53:21;7.80;;;7.50;;
7154;SDS011;3619;53.784;10.440;2023-03-12T08:55:50;11.07;;;10.67;;
7154;SDS011;3619;53.784;10.440;2023-03-12T08:58:17;11.10;;;10.70;;
7154;SDS011;3619;53.784;10.440;2023-03-12T09:00:46;11.93;;;11.53;;
7154;SDS011;3619;53.784;10.440;2023-03-12T09:03:29;11.53;;;11.13;;
7154;SDS011;3619;53.784;10.440;2023-03-12T09:06:03;11.10;;;10.70;;
7154;SDS011;3619;53.784;10.440;2023-03-12T09:08:31;11.60;;;11.20;;
7154;SDS011;3619;53.784;10.440;2023-03-12T09:10:58;11.73;;;11.33;;
7154;SDS011;3619;53.784;10.440;2023-03-12T09:13:27;13.20;;;12.70;;
7154;SDS011;3619;53.784;10.440;2023-03-12T09:16:00;10.87;;;10.47;;
7154;SDS011;3619;53.784;10.440;2023-03-12T09:18:28;12.07;;;11.67;;
7154;SDS011;3619;53.784;10.440;2023-03-12T09:21:06;11.50;;;11.10;;
7154;SDS011;3619;53.784;10.440;2023-03-12T09:23:33;11.80;;;11.40;;
7154;SDS011;3619;53.784;10.440;2023-03-12T09:26:00;9.57;;;9.23;;
7154;SDS011;3619;53.784;10.440;2023-03-12T09:28:29;11.97;;;11.57;;
7154;SDS011;3619;53.784;10.440;2023-03-12T09:31:01;9.70;;;9.30;;
7154;SDS011;3619;53.784;10.440;2023-03-12T09:33:29;10.53;;;10.13;;
7154;SDS011;3619;53.784;10.440;2023-03-12T09:35:59;10.67;;;10.27;;
7154;SDS011;3619;53.784;10.440;2023-03-12T09:38:26;11.57;;;11.17;;
7154;SDS011;3619;53.784;10.440;2023-03-12T09:40:56;9.17;;;8.87;;
7154;SDS011;3619;53.784;10.440;2023-03-12T09:43:25;9.60;;;9.23;;
7154;SDS011;3619;53.784;10.440;2023-03-12T09:45:56;12.13;;;11.70;;
7154;SDS011;3619;53.784;10.440;2023-03-12T09:48:34;10.57;;;10.17;;
7154;SDS011;3619;53.784;10.440;2023-03-12T09:51:04;10.33;;;9.93;;
7154;SDS011;3619;53.784;10.440;2023-03-12T09:53:39;10.53;;;10.13;;
7154;SDS011;3619;53.784;10.440;2023-03-12T09:56:12;11.33;;;10.93;;
7154;SDS011;3619;53.784;10.440;2023-03-12T09:58:43;12.97;;;12.47;;
7154;SDS011;3619;53.784;10.440;2023-03-12T10:01:19;10.03;;;9.63;;
7154;SDS011;3619;53.784;10.440;2023-03-12T10:04:15;9.67;;;9.27;;
7154;SDS011;3619;53.784;10.440;2023-03-12T10:06:50;10.47;;;10.07;;
7154;SDS011;3619;53.784;10.440;2023-03-12T10:12:22;7.73;;;7.43;;
7154;SDS011;3619;53.784;10.440;2023-03-12T10:15:00;8.20;;;7.90;;
7154;SDS011;3619;53.784;10.440;2023-03-12T10:17:49;8.53;;;8.23;;
7154;SDS011;3619;53.784;10.440;2023-03-12T10:23:24;7.50;;;7.20;;
7154;SDS011;3619;53.784;10.440;2023-03-12T10:25:59;7.83;;;7.53;;
7154;SDS011;3619;53.784;10.440;2023-03-12T10:28:33;6.43;;;6.23;;
7154;SDS011;3619;53.784;10.440;2023-03-12T10:31:11;5.63;;;5.43;;
7154;SDS011;3619;53.784;10.440;2023-03-12T10:33:42;7.17;;;6.87;;
7154;SDS011;3619;53.784;10.440;2023-03-12T10:36:24;5.93;;;5.73;;
7154;SDS011;3619;53.784;10.440;2023-03-12T10:38:53;4.13;;;4.03;;
7154;SDS011;3619;53.784;10.440;2023-03-12T10:41:21;5.33;;;5.13;;
7154;SDS011;3619;53.784;10.440;2023-03-12T10:43:53;5.93;;;5.73;;
7154;SDS011;3619;53.784;10.440;2023-03-12T10:46:40;4.73;;;4.53;;
7154;SDS011;3619;53.784;10.440;2023-03-12T10:49:27;3.70;;;3.60;;
7154;SDS011;3619;53.784;10.440;2023-03-12T10:51:59;4.30;;;4.20;;
7154;SDS011;3619;53.784;10.440;2023-03-12T10:54:33;4.93;;;4.73;;
7154;SDS011;3619;53.784;10.440;2023-03-12T10:57:15;4.27;;;4.17;;
7154;SDS011;3619;53.784;10.440;2023-03-12T10:59:44;4.23;;;4.13;;
7154;SDS011;3619;53.784;10.440;2023-03-12T11:02:24;4.17;;;4.07;;
7154;SDS011;3619;53.784;10.440;2023-03-12T11:04:56;4.17;;;4.07;;
7154;SDS011;3619;53.784;10.440;2023-03-12T11:07:28;3.77;;;3.67;;
7154;SDS011;3619;53.784;10.440;2023-03-12T11:13:04;3.43;;;3.33;;
7154;SDS011;3619;53.784;10.440;2023-03-12T11:15:48;3.03;;;2.93;;
7154;SDS011;3619;53.784;10.440;2023-03-12T11:18:28;3.30;;;3.20;;
7154;SDS011;3619;53.784;10.440;2023-03-12T11:26:36;2.87;;;2.77;;
7154;SDS011;3619;53.784;10.440;2023-03-12T11:29:11;3.40;;;3.30;;
7154;SDS011;3619;53.784;10.440;2023-03-12T11:31:49;2.57;;;2.47;;
7154;SDS011;3619;53.784;10.440;2023-03-12T11:34:27;3.30;;;3.20;;
7154;SDS011;3619;53.784;10.440;2023-03-12T11:36:59;3.30;;;3.20;;
7154;SDS011;3619;53.784;10.440;2023-03-12T11:39:35;3.67;;;3.57;;
7154;SDS011;3619;53.784;10.440;2023-03-12T11:42:15;2.57;;;2.47;;
7154;SDS011;3619;53.784;10.440;2023-03-12T11:44:54;2.70;;;2.60;;
7154;SDS011;3619;53.784;10.440;2023-03-12T11:47:39;2.73;;;2.63;;
7154;SDS011;3619;53.784;10.440;2023-03-12T11:50:33;2.70;;;2.60;;
7154;SDS011;3619;53.784;10.440;2023-03-12T11:53:11;2.80;;;2.70;;
7154;SDS011;3619;53.784;10.440;2023-03-12T11:55:51;3.10;;;3.00;;
7154;SDS011;3619;53.784;10.440;2023-03-12T11:58:33;2.90;;;2.80;;
7154;SDS011;3619;53.784;10.440;2023-03-12T12:01:11;3.00;;;2.90;;
7154;SDS011;3619;53.784;10.440;2023-03-12T12:03:49;3.17;;;3.07;;
7154;SDS011;3619;53.784;10.440;2023-03-12T12:06:49;2.40;;;2.30;;
7154;SDS011;3619;53.784;10.440;2023-03-12T12:09:24;2.93;;;2.83;;
7154;SDS011;3619;53.784;10.440;2023-03-12T12:12:07;2.47;;;2.37;;
7154;SDS011;3619;53.784;10.440;2023-03-12T12:14:49;2.90;;;2.80;;
7154;SDS011;3619;53.784;10.440;2023-03-12T12:17:31;3.10;;;3.00;;
7154;SDS011;3619;53.784;10.440;2023-03-12T12:20:17;2.80;;;2.70;;
7154;SDS011;3619;53.784;10.440;2023-03-12T12:22:56;2.37;;;2.27;;
7154;SDS011;3619;53.784;10.440;2023-03-12T12:25:33;2.70;;;2.60;;
7154;SDS011;3619;53.784;10.440;2023-03-12T12:28:26;2.50;;;2.40;;
7154;SDS011;3619;53.784;10.440;2023-03-12T12:31:07;2.93;;;2.83;;
7154;SDS011;3619;53.784;10.440;2023-03-12T12:33:49;2.27;;;2.17;;
7154;SDS011;3619;53.784;10.440;2023-03-12T12:36:25;2.43;;;2.33;;
7154;SDS011;3619;53.784;10.440;2023-03-12T12:38:57;2.40;;;2.30;;
7154;SDS011;3619;53.784;10.440;2023-03-12T12:41:31;2.70;;;2.60;;
7154;SDS011;3619;53.784;10.440;2023-03-12T12:44:03;2.37;;;2.27;;
7154;SDS011;3619;53.784;10.440;2023-03-12T12:46:36;2.77;;;2.67;;
7154;SDS011;3619;53.784;10.440;2023-03-12T12:49:08;2.80;;;2.70;;
7154;SDS011;3619;53.784;10.440;2023-03-12T12:51:38;2.93;;;2.83;;
7154;SDS011;3619;53.784;10.440;2023-03-12T12:54:09;2.60;;;2.50;;
7154;SDS011;3619;53.784;10.440;2023-03-12T12:56:47;2.30;;;2.20;;
7154;SDS011;3619;53.784;10.440;2023-03-12T12:59:25;3.07;;;2.97;;
7154;SDS011;3619;53.784;10.440;2023-03-12T13:01:59;2.40;;;2.30;;
7154;SDS011;3619;53.784;10.440;2023-03-12T13:04:29;2.80;;;2.70;;
7154;SDS011;3619;53.784;10.440;2023-03-12T13:07:00;2.33;;;2.23;;
7154;SDS011;3619;53.784;10.440;2023-03-12T13:09:36;2.90;;;2.80;;
7154;SDS011;3619;53.784;10.440;2023-03-12T13:12:14;2.60;;;2.50;;
7154;SDS011;3619;53.784;10.440;2023-03-12T13:14:47;2.07;;;1.97;;
7154;SDS011;3619;53.784;10.440;2023-03-12T13:17:19;2.30;;;2.20;;
7154;SDS011;3619;53.784;10.440;2023-03-12T13:19:50;2.27;;;2.17;;
7154;SDS011;3619;53.784;10.440;2023-03-12T13:22:21;2.20;;;2.10;;
7154;SDS011;3619;53.784;10.440;2023-03-12T13:24:56;2.40;;;2.30;;
7154;SDS011;3619;53.784;10.440;2023-03-12T13:27:30;2.70;;;2.60;;
7154;SDS011;3619;53.784;10.440;2023-03-12T13:33:11;2.70;;;2.60;;
7154;SDS011;3619;53.784;10.440;2023-03-12T13:35:40;2.50;;;2.40;;
7154;SDS011;3619;53.784;10.440;2023-03-12T13:38:16;2.63;;;2.53;;
7154;SDS011;3619;53.784;10.440;2023-03-12T13:40:59;2.93;;;2.83;;
7154;SDS011;3619;53.784;10.440;2023-03-12T13:43:30;2.70;;;2.60;;
7154;SDS011;3619;53.784;10.440;2023-03-12T13:46:31;2.27;;;2.17;;
7154;SDS011;3619;53.784;10.440;2023-03-12T13:49:02;2.37;;;2.27;;
7154;SDS011;3619;53.784;10.440;2023-03-12T13:51:53;2.80;;;2.70;;
7154;SDS011;3619;53.784;10.440;2023-03-12T13:54:26;2.13;;;2.03;;
7154;SDS011;3619;53.784;10.440;2023-03-12T13:56:58;2.17;;;2.07;;
7154;SDS011;3619;53.784;10.440;2023-03-12T13:59:29;2.87;;;2.77;;
7154;SDS011;3619;53.784;10.440;2023-03-12T14:02:00;3.00;;;2.90;;
7154;SDS011;3619;53.784;10.440;2023-03-12T14:04:35;2.60;;;2.50;;
7154;SDS011;3619;53.784;10.440;2023-03-12T14:07:20;2.40;;;2.30;;
7154;SDS011;3619;53.784;10.440;2023-03-12T14:10:05;2.70;;;2.60;;
7154;SDS011;3619;53.784;10.440;2023-03-12T14:12:42;2.87;;;2.77;;
7154;SDS011;3619;53.784;10.440;2023-03-12T14:15:20;3.30;;;3.20;;
7154;SDS011;3619;53.784;10.440;2023-03-12T14:17:58;3.10;;;3.00;;
7154;SDS011;3619;53.784;10.440;2023-03-12T14:20:27;2.60;;;2.50;;
7154;SDS011;3619;53.784;10.440;2023-03-12T14:23:02;3.13;;;3.03;;
7154;SDS011;3619;53.784;10.440;2023-03-12T14:25:33;3.20;;;3.10;;
7154;SDS011;3619;53.784;10.440;2023-03-12T14:28:09;3.60;;;3.50;;
7154;SDS011;3619;53.784;10.440;2023-03-12T14:30:40;2.77;;;2.67;;
7154;SDS011;3619;53.784;10.440;2023-03-12T14:33:15;3.43;;;3.33;;
7154;SDS011;3619;53.784;10.440;2023-03-12T14:35:44;3.93;;;3.83;;
7154;SDS011;3619;53.784;10.440;2023-03-12T14:38:16;3.20;;;3.10;;
7154;SDS011;3619;53.784;10.440;2023-03-12T14:40:50;2.87;;;2.77;;
7154;SDS011;3619;53.784;10.440;2023-03-12T14:43:22;3.10;;;3.00;;
7154;SDS011;3619;53.784;10.440;2023-03-12T14:45:53;3.03;;;2.93;;
7154;SDS011;3619;53.784;10.440;2023-03-12T14:48:22;3.07;;;2.97;;
7154;SDS011;3619;53.784;10.440;2023-03-12T14:50:53;3.83;;;3.73;;
7154;SDS011;3619;53.784;10.440;2023-03-12T14:53:22;3.83;;;3.73;;
7154;SDS011;3619;53.784;10.440;2023-03-12T14:55:58;3.20;;;3.10;;
7154;SDS011;3619;53.784;10.440;2023-03-12T14:58:30;3.90;;;3.80;;
7154;SDS011;3619;53.784;10.440;2023-03-12T15:00:58;4.30;;;4.17;;
7154;SDS011;3619;53.784;10.440;2023-03-12T15:03:29;4.40;;;4.27;;
7154;SDS011;3619;53.784;10.440;2023-03-12T15:05:57;3.23;;;3.13;;
7154;SDS011;3619;53.784;10.440;2023-03-12T15:08:25;3.97;;;3.87;;
7154;SDS011;3619;53.784;10.440;2023-03-12T15:10:52;5.00;;;4.80;;
7154;SDS011;3619;53.784;10.440;2023-03-12T15:13:21;3.77;;;3.67;;
7154;SDS011;3619;53.784;10.440;2023-03-12T15:15:50;3.80;;;3.70;;
7154;SDS011;3619;53.784;10.440;2023-03-12T15:18:19;4.30;;;4.20;;
7154;SDS011;3619;53.784;10.440;2023-03-12T15:20:51;3.80;;;3.70;;
7154;SDS011;3619;53.784;10.440;2023-03-12T15:23:20;3.83;;;3.73;;
7154;SDS011;3619;53.784;10.440;2023-03-12T15:28:34;4.47;;;4.30;;
7154;SDS011;3619;53.784;10.440;2023-03-12T15:31:06;4.13;;;4.03;;
7154;SDS011;3619;53.784;10.440;2023-03-12T15:33:38;3.80;;;3.70;;
7154;SDS011;3619;53.784;10.440;2023-03-12T15:36:15;4.17;;;4.07;;
7154;SDS011;3619;53.784;10.440;2023-03-12T15:38:48;3.77;;;3.67;;
7154;SDS011;3619;53.784;10.440;2023-03-12T15:41:18;3.87;;;3.77;;
7154;SDS011;3619;53.784;10.440;2023-03-12T15:43:48;4.83;;;4.63;;
7154;SDS011;3619;53.784;10.440;2023-03-12T15:46:17;4.07;;;3.97;;
7154;SDS011;3619;53.784;10.440;2023-03-12T15:48:46;3.43;;;3.33;;